createdAt,value
2023-04-03T00:00:52.596Z,94364.28
2023-04-03T00:03:21.954Z,94360.41
2023-04-03T00:05:50.567Z,94335.19
2023-04-03T00:08:19.041Z,94329.19
2023-04-03T00:10:47.168Z,94314.31
2023-04-03T00:13:15.605Z,94283.44
2023-04-03T00:15:43.770Z,94258.03
2023-04-03T00:18:13.003Z,94266.63
2023-04-03T00:20:41.337Z,94305.06
2023-04-03T00:23:09.316Z,94307.53
2023-04-03T00:25:37.741Z,94320.94
2023-04-03T00:28:06.447Z,94304.94
2023-04-03T00:30:35.159Z,94299.91
2023-04-03T00:33:03.645Z,94277.59
2023-04-03T00:35:32.919Z,94273.06
2023-04-03T00:38:01.257Z,94234.44
2023-04-03T00:40:29.815Z,94241.56
2023-04-03T00:43:00.202Z,94299.25
2023-04-03T00:45:36.772Z,94269.50
2023-04-03T00:48:07.774Z,94252.88
2023-04-03T00:50:40.575Z,94214.59
2023-04-03T00:53:11.404Z,94202.91
2023-04-03T00:55:40.145Z,94187.72
2023-04-03T00:58:08.986Z,94179.66
2023-04-03T01:00:39.613Z,94148.81
2023-04-03T01:03:07.695Z,94137.66
2023-04-03T01:05:37.201Z,94111.84
2023-04-03T01:08:06.593Z,94098.25
2023-04-03T01:10:34.855Z,94077.25
2023-04-03T01:13:03.193Z,94062.44
2023-04-03T01:15:36.015Z,94052.44
2023-04-03T01:18:05.800Z,94041.47
2023-04-03T01:21:24.813Z,94013.69
2023-04-03T01:24:13.914Z,94004.66
2023-04-03T01:26:41.889Z,93997.22
2023-04-03T01:29:10.095Z,93971.72
2023-04-03T01:31:50.512Z,94001.75
2023-04-03T01:34:18.737Z,94004.50
2023-04-03T01:36:46.712Z,94002.09
2023-04-03T01:39:15.183Z,94048.06
2023-04-03T01:41:43.262Z,94067.25
2023-04-03T01:44:11.708Z,94052.09
2023-04-03T01:46:39.874Z,94049.69
2023-04-03T01:49:09.159Z,94030.47
2023-04-03T01:51:37.016Z,94006.28
2023-04-03T01:54:04.985Z,93976.88
2023-04-03T01:56:33.232Z,93952.06
2023-04-03T01:59:01.182Z,93923.50
2023-04-03T02:01:29.111Z,93909.47
2023-04-03T02:03:57.184Z,93899.31
2023-04-03T02:06:27.342Z,93871.38
2023-04-03T02:08:55.470Z,93891.72
2023-04-03T02:11:27.278Z,93880.09
2023-04-03T02:13:55.390Z,93863.34
2023-04-03T02:16:23.414Z,93855.75
2023-04-03T02:18:52.096Z,93838.19
2023-04-03T02:21:19.996Z,93823.84
2023-04-03T02:23:49.157Z,93819.81
2023-04-03T02:26:20.206Z,93813.03
2023-04-03T02:28:48.166Z,93842.38
2023-04-03T02:31:16.236Z,93885.09
2023-04-03T02:33:44.122Z,93925.28
2023-04-03T02:36:12.349Z,93986.25
2023-04-03T02:38:40.358Z,94001.09
2023-04-03T02:41:11.563Z,94009.50
2023-04-03T02:43:39.672Z,94022.09
2023-04-03T02:46:08.142Z,94026.91
2023-04-03T02:48:36.265Z,94063.06
2023-04-03T02:51:04.227Z,94048.88
2023-04-03T02:53:32.037Z,94016.44
2023-04-03T02:56:01.996Z,93986.88
2023-04-03T02:58:31.276Z,93972.06
2023-04-03T03:00:59.045Z,93953.31
2023-04-03T03:03:26.933Z,93947.69
2023-04-03T03:06:04.628Z,93959.47
2023-04-03T03:08:32.754Z,93931.72
2023-04-03T03:11:00.699Z,93920.75
2023-04-03T03:13:28.766Z,93940.09
2023-04-03T03:15:58.389Z,93913.34
2023-04-03T03:18:26.510Z,93896.91
2023-04-03T03:20:54.908Z,93877.53
2023-04-03T03:23:24.546Z,93883.31
2023-04-03T03:25:57.594Z,93890.09
2023-04-03T03:28:25.674Z,93913.34
2023-04-03T03:30:53.474Z,93938.50
2023-04-03T03:33:22.881Z,93945.09
2023-04-03T03:35:50.880Z,93958.50
2023-04-03T03:38:18.873Z,93946.88
2023-04-03T03:40:47.062Z,93952.06
2023-04-03T03:43:15.060Z,93939.31
2023-04-03T03:45:43.028Z,93899.16
2023-04-03T03:48:11.156Z,93868.50
2023-04-03T03:50:40.461Z,93841.41
2023-04-03T03:53:08.358Z,93813.69
2023-04-03T03:55:36.542Z,93820.63
2023-04-03T03:58:04.562Z,93854.16
2023-04-03T04:00:32.650Z,93829.47
2023-04-03T04:03:01.955Z,93838.19
2023-04-03T04:05:30.095Z,93828.19
2023-04-03T04:07:59.811Z,93817.41
2023-04-03T04:10:28.043Z,93818.22
2023-04-03T04:12:57.455Z,93819.00
2023-04-03T04:15:28.045Z,93854.94
2023-04-03T04:17:56.153Z,93870.09
2023-04-03T04:20:24.509Z,93883.31
2023-04-03T04:22:52.480Z,93879.47
2023-04-03T04:25:21.940Z,93857.53
2023-04-03T04:27:49.911Z,93865.75
2023-04-03T04:30:22.071Z,93854.16
2023-04-03T04:32:50.075Z,93858.50
2023-04-03T04:35:18.233Z,93838.19
2023-04-03T04:37:46.281Z,93849.78
2023-04-03T04:40:14.244Z,93862.34
2023-04-03T04:42:46.311Z,93877.69
2023-04-03T04:45:14.390Z,93888.50
2023-04-03T04:47:42.471Z,93929.31
2023-04-03T04:50:11.649Z,93968.50
2023-04-03T04:52:39.664Z,94016.28
2023-04-03T04:55:08.357Z,94041.47
2023-04-03T04:57:36.707Z,94051.28
2023-04-03T05:00:07.737Z,94089.22
2023-04-03T05:02:35.702Z,94152.69
2023-04-03T05:05:05.111Z,94150.75
2023-04-03T05:07:33.416Z,94176.09
2023-04-03T05:10:01.320Z,94208.75
2023-04-03T05:12:29.312Z,94261.44
2023-04-03T05:14:57.342Z,94309.31
2023-04-03T05:17:26.789Z,94353.63
2023-04-03T05:19:54.686Z,94380.78
2023-04-03T05:22:22.522Z,94439.22
2023-04-03T05:24:50.630Z,94452.31
2023-04-03T05:27:18.939Z,94486.94
2023-04-03T05:29:47.188Z,94522.25
2023-04-03T05:32:14.920Z,94578.59
2023-04-03T05:34:44.443Z,94628.16
2023-04-03T05:37:12.280Z,94681.00
2023-04-03T05:39:41.607Z,94732.91
2023-04-03T05:42:09.961Z,94808.44
2023-04-03T05:44:37.760Z,94896.06
2023-04-03T05:47:05.813Z,94984.25
2023-04-03T05:49:33.624Z,95103.00
2023-04-03T05:52:03.144Z,95352.47
2023-04-03T05:54:32.097Z,95606.63
2023-04-03T05:57:00.193Z,95831.59
2023-04-03T05:59:28.355Z,96103.34
2023-04-03T06:01:56.633Z,96339.16
2023-04-03T06:04:24.714Z,96525.81
2023-04-03T06:06:54.229Z,96633.03
2023-04-03T06:09:26.467Z,96806.72
2023-04-03T06:11:54.873Z,96951.59
2023-04-03T06:14:22.747Z,97036.78
2023-04-03T06:16:50.631Z,97175.00
2023-04-03T06:19:18.481Z,97226.06
2023-04-03T06:21:46.380Z,97381.69
2023-04-03T06:24:17.701Z,97387.09
2023-04-03T06:26:47.373Z,97562.94
2023-04-03T06:29:15.252Z,97582.69
2023-04-03T06:31:43.161Z,97381.00
2023-04-03T06:34:12.098Z,97351.03
2023-04-03T06:36:40.194Z,97458.81
2023-04-03T06:39:08.700Z,97399.78
2023-04-03T06:41:37.231Z,97464.91
2023-04-03T06:44:07.280Z,97508.44
2023-04-03T06:46:35.275Z,97612.72
2023-04-03T06:49:03.243Z,97609.41
2023-04-03T06:51:31.921Z,97692.44
2023-04-03T06:54:00.773Z,97728.41
2023-04-03T06:56:29.730Z,97816.78
2023-04-03T06:58:58.818Z,97777.44
2023-04-03T07:01:31.933Z,97868.31
2023-04-03T07:03:59.914Z,98021.63
2023-04-03T07:06:28.918Z,98069.06
2023-04-03T07:08:57.718Z,97936.06
2023-04-03T07:11:26.017Z,98025.22
2023-04-03T07:13:54.279Z,98106.94
2023-04-03T07:16:22.346Z,98197.97
2023-04-03T07:18:52.013Z,98173.97
2023-04-03T07:21:20.063Z,98056.28
2023-04-03T07:26:23.345Z,98230.63
2023-04-03T07:28:51.776Z,98356.19
2023-04-03T07:31:19.675Z,98386.91
2023-04-03T07:33:53.205Z,98368.84
2023-04-03T07:36:23.656Z,98230.88
2023-04-03T07:38:51.594Z,98223.81
2023-04-03T07:41:23.595Z,98419.81
2023-04-03T07:43:51.875Z,98519.69
2023-04-03T07:46:19.777Z,98653.13
2023-04-03T07:48:47.811Z,98815.81
2023-04-03T07:51:17.283Z,98928.00
2023-04-03T07:53:45.135Z,98990.91
2023-04-03T07:56:12.971Z,99108.53
2023-04-03T07:58:40.906Z,99349.59
2023-04-03T08:01:09.236Z,99299.53
2023-04-03T08:03:38.424Z,99282.94
2023-04-03T08:06:11.949Z,99327.19
2023-04-03T08:08:45.030Z,99334.16
2023-04-03T08:11:13.482Z,99174.38
2023-04-03T08:13:42.536Z,99227.13
2023-04-03T08:16:12.796Z,99280.53
2023-04-03T08:18:41.220Z,99438.91
2023-04-03T08:21:09.785Z,99451.94
2023-04-03T08:23:37.677Z,99513.31
2023-04-03T08:26:11.778Z,99627.78
2023-04-03T08:28:40.119Z,99603.56
2023-04-03T08:31:11.994Z,99792.47
2023-04-03T08:33:40.402Z,99812.28
2023-04-03T08:36:10.715Z,100244.75
2023-04-03T08:38:38.618Z,100276.19
2023-04-03T08:41:16.410Z,100317.78
2023-04-03T08:43:57.162Z,100459.03
2023-04-03T08:46:33.316Z,100524.22
2023-04-03T08:49:01.844Z,100601.84
2023-04-03T08:51:31.317Z,100436.63
2023-04-03T08:54:03.330Z,100494.84
2023-04-03T08:56:35.421Z,100572.28
2023-04-03T08:59:08.235Z,100526.25
2023-04-03T09:01:38.685Z,100781.53
2023-04-03T09:04:15.038Z,100664.63
2023-04-03T09:06:47.209Z,100709.13
2023-04-03T09:09:18.008Z,100815.41
2023-04-03T09:11:58.791Z,100775.59
2023-04-03T09:14:35.297Z,100666.56
2023-04-03T09:17:06.903Z,100940.41
2023-04-03T09:19:42.958Z,101121.19
2023-04-03T09:22:18.731Z,101311.03
2023-04-03T09:24:49.214Z,101138.91
2023-04-03T09:27:18.639Z,101184.34
2023-04-03T09:29:47.236Z,101168.56
2023-04-03T09:32:23.703Z,101352.13
2023-04-03T09:34:53.143Z,101602.66
2023-04-03T09:37:43.800Z,101844.72
2023-04-03T09:40:33.384Z,102004.66
2023-04-03T09:43:04.773Z,102075.75
2023-04-03T09:45:34.574Z,101809.69
2023-04-03T09:48:16.694Z,101703.69
2023-04-03T09:50:59.432Z,102155.81
2023-04-03T09:53:34.037Z,102444.41
2023-04-03T09:56:04.351Z,102344.22
2023-04-03T09:58:46.945Z,102153.41
2023-04-03T10:01:31.027Z,102232.50
2023-04-03T10:04:08.663Z,102544.06
2023-04-03T10:06:41.606Z,102732.75
2023-04-03T10:09:20.376Z,102711.66
2023-04-03T10:12:05.701Z,102784.03
2023-04-03T10:14:36.397Z,103044.31
2023-04-03T10:17:17.485Z,103029.50
2023-04-03T10:19:50.019Z,103026.72
2023-04-03T10:22:33.523Z,103345.97
2023-04-03T10:25:07.032Z,103728.75
2023-04-03T10:27:44.124Z,103951.72
2023-04-03T10:30:25.143Z,103959.66
2023-04-03T10:33:05.643Z,104052.13
2023-04-03T10:35:44.366Z,103373.69
2023-04-03T10:38:22.079Z,103452.44
2023-04-03T10:40:58.354Z,103431.06
2023-04-03T10:43:34.180Z,103409.78
2023-04-03T10:46:08.998Z,103659.66
2023-04-03T10:48:46.927Z,103321.31
2023-04-03T10:51:24.457Z,103536.44
2023-04-03T10:53:58.221Z,103422.13
2023-04-03T10:56:33.614Z,103566.59
2023-04-03T10:59:09.276Z,103822.88
2023-04-03T11:01:42.704Z,103591.41
2023-04-03T11:04:13.261Z,104001.22
2023-04-03T11:06:46.653Z,103788.41
2023-04-03T11:09:23.424Z,103462.06
2023-04-03T11:11:55.218Z,103853.00
2023-04-03T11:14:29.399Z,103715.44
2023-04-03T11:17:13.123Z,103799.72
2023-04-03T11:19:47.540Z,103906.28
2023-04-03T11:22:23.718Z,103683.50
2023-04-03T11:24:59.992Z,104313.25
2023-04-03T11:27:40.907Z,104416.44
2023-04-03T11:30:18.848Z,104924.66
2023-04-03T11:33:27.525Z,104140.72
2023-04-03T11:36:00.079Z,104423.59
2023-04-03T11:38:35.856Z,104592.03
2023-04-03T11:41:05.038Z,104694.50
2023-04-03T11:43:34.422Z,103889.22
2023-04-03T11:46:04.078Z,103896.19
2023-04-03T11:48:49.308Z,104095.22
2023-04-03T11:51:42.570Z,104065.94
2023-04-03T11:54:46.191Z,104067.69
2023-04-03T11:57:57.076Z,104163.56
2023-04-03T12:00:59.932Z,104381.38
2023-04-03T12:04:07.311Z,103943.13
2023-04-03T12:07:11.122Z,104048.94
2023-04-03T12:10:31.638Z,104122.59
2023-04-03T12:13:05.107Z,103763.69
2023-04-03T12:15:52.369Z,104300.38
2023-04-03T12:18:57.671Z,104246.06
2023-04-03T12:22:08.254Z,104303.84
2023-04-03T12:24:37.634Z,103608.44
2023-04-03T12:27:19.634Z,103900.22
2023-04-03T12:29:52.541Z,103767.94
2023-04-03T12:32:37.431Z,104044.16
2023-04-03T12:35:19.122Z,103692.63
2023-04-03T12:38:25.234Z,104163.16
2023-04-03T12:40:59.276Z,103583.50
2023-04-03T12:43:43.077Z,103267.47
2023-04-03T12:46:17.872Z,103586.00
2023-04-03T12:48:52.035Z,103877.81
2023-04-03T12:51:24.023Z,103875.09
2023-04-03T12:53:59.147Z,103506.97
2023-04-03T12:56:28.673Z,103433.47
2023-04-03T12:59:14.388Z,104058.00
2023-04-03T13:01:42.314Z,103656.88
2023-04-03T13:04:13.645Z,104004.59
2023-04-03T13:06:43.817Z,103962.94
2023-04-03T13:09:23.783Z,104111.28
2023-04-03T13:11:53.658Z,103649.56
2023-04-03T13:14:24.081Z,103422.88
2023-04-03T13:16:56.652Z,103495.22
2023-04-03T13:19:28.410Z,103480.25
2023-04-03T13:22:01.541Z,103758.47
2023-04-03T13:24:32.659Z,103495.13
2023-04-03T13:27:01.059Z,103395.25
2023-04-03T13:29:32.093Z,103674.25
2023-04-03T13:32:01.438Z,103743.34
2023-04-03T13:34:32.656Z,103479.13
2023-04-03T13:37:02.280Z,103785.03
2023-04-03T13:39:33.375Z,103679.47
2023-04-03T13:44:49.305Z,103825.59
2023-04-03T13:47:20.555Z,103976.63
2023-04-03T13:50:02.146Z,103666.06
2023-04-03T13:52:33.565Z,103892.19
2023-04-03T13:55:07.916Z,103626.06
2023-04-03T13:57:37.957Z,103349.72
2023-04-03T14:00:36.234Z,103775.88
2023-04-03T14:03:04.091Z,103918.88
2023-04-03T14:05:32.134Z,103902.84
2023-04-03T14:08:02.144Z,103795.28
2023-04-03T14:10:34.016Z,103688.84
2023-04-03T14:13:02.658Z,103640.16
2023-04-03T14:15:32.923Z,103867.09
2023-04-03T14:18:03.896Z,103728.72
2023-04-03T14:20:32.876Z,104036.66
2023-04-03T14:23:00.635Z,103870.53
2023-04-03T14:25:28.725Z,103886.78
2023-04-03T14:27:58.688Z,103746.28
2023-04-03T14:30:29.261Z,103673.53
2023-04-03T14:32:57.271Z,103677.03
2023-04-03T14:35:26.074Z,103615.09
2023-04-03T14:37:55.104Z,103721.31
2023-04-03T14:40:25.711Z,103744.34
2023-04-03T14:42:56.109Z,103602.56
2023-04-03T14:45:26.384Z,103435.84
2023-04-03T14:47:56.841Z,103006.97
2023-04-03T14:50:26.644Z,103161.50
2023-04-03T14:52:56.969Z,103290.63
2023-04-03T14:55:26.557Z,103480.00
2023-04-03T14:57:55.019Z,103400.38
2023-04-03T15:00:25.148Z,103287.25
2023-04-03T15:02:53.490Z,103430.34
2023-04-03T15:05:21.677Z,103448.16
2023-04-03T15:07:54.169Z,103016.56
2023-04-03T15:10:24.617Z,103182.50
2023-04-03T15:12:53.455Z,102936.03
2023-04-03T15:15:23.072Z,103203.66
2023-04-03T15:17:54.832Z,103143.59
2023-04-03T15:20:25.641Z,102972.28
2023-04-03T15:22:53.460Z,102945.56
2023-04-03T15:25:21.323Z,102725.13
2023-04-03T15:27:49.194Z,102739.03
2023-04-03T15:30:19.759Z,102324.97
2023-04-03T15:32:48.365Z,101706.94
2023-04-03T15:35:17.873Z,101290.72
2023-04-03T15:37:45.717Z,100760.63
2023-04-03T15:40:13.632Z,100515.78
2023-04-03T15:42:42.027Z,100366.75
2023-04-03T15:45:10.788Z,100477.28
2023-04-03T15:47:38.920Z,100125.06
2023-04-03T15:50:08.796Z,100011.34
2023-04-03T15:52:38.545Z,99639.34
2023-04-03T15:55:08.068Z,99372.88
2023-04-03T16:00:10.268Z,98873.13
2023-04-03T16:02:38.168Z,98680.06
2023-04-03T16:05:06.885Z,98557.72
2023-04-03T16:07:34.841Z,98388.16
2023-04-03T16:10:04.090Z,98342.84
2023-04-03T16:12:31.817Z,98231.19
2023-04-03T16:14:59.717Z,98173.69
2023-04-03T16:17:28.836Z,98199.53
2023-04-03T16:19:57.087Z,98187.31
2023-04-03T16:22:29.643Z,98242.16
2023-04-03T16:24:57.420Z,98211.91
2023-04-03T16:27:28.534Z,98151.91
2023-04-03T16:29:57.141Z,98006.09
2023-04-03T16:32:25.754Z,97918.47
2023-04-03T16:34:53.837Z,97850.88
2023-04-03T16:37:21.705Z,97757.50
2023-04-03T16:39:49.600Z,97725.94
2023-04-03T16:42:17.439Z,97660.88
2023-04-03T16:44:48.126Z,97600.81
2023-04-03T16:47:19.978Z,97551.31
2023-04-03T16:49:48.786Z,97477.06
2023-04-03T16:52:16.793Z,97438.66
2023-04-03T16:54:44.527Z,97378.53
2023-04-03T16:57:12.312Z,97332.41
2023-04-03T16:59:40.075Z,97345.38
2023-04-03T17:02:09.219Z,97272.72
2023-04-03T17:04:37.371Z,97177.75
2023-04-03T17:07:07.104Z,97147.28
2023-04-03T17:09:35.570Z,97105.50
2023-04-03T17:12:03.714Z,97058.59
2023-04-03T17:14:31.494Z,97016.69
2023-04-03T17:16:59.342Z,96966.50
2023-04-03T17:19:30.079Z,96917.88
2023-04-03T17:21:58.095Z,96865.94
2023-04-03T17:24:26.108Z,96801.91
2023-04-03T17:26:53.903Z,96734.06
2023-04-03T17:29:21.664Z,96679.59
2023-04-03T17:31:49.474Z,96626.75
2023-04-03T17:34:17.376Z,96584.41
2023-04-03T17:36:46.548Z,96514.88
2023-04-03T17:39:14.925Z,96446.72
2023-04-03T17:41:42.858Z,96417.84
2023-04-03T17:44:10.786Z,96356.78
2023-04-03T17:46:38.941Z,96304.03
2023-04-03T17:49:07.616Z,96258.22
2023-04-03T17:51:36.584Z,96221.03
2023-04-03T17:54:05.748Z,96190.44
2023-04-03T17:56:33.601Z,96177.84
2023-04-03T17:59:01.834Z,96149.72
2023-04-03T18:01:31.770Z,96150.69
2023-04-03T18:04:01.143Z,96136.81
2023-04-03T18:06:31.876Z,96109.94
2023-04-03T18:09:04.829Z,96064.03
2023-04-03T18:11:35.384Z,96046.38
2023-04-03T18:14:07.524Z,95993.72
2023-04-03T18:16:35.684Z,95967.75
2023-04-03T18:19:21.376Z,95953.88
2023-04-03T18:21:52.237Z,95936.22
2023-04-03T18:24:21.462Z,95883.63
2023-04-03T18:26:54.979Z,95821.25
2023-04-03T18:29:23.236Z,95782.69
2023-04-03T18:31:54.358Z,95769.53
2023-04-03T18:34:22.225Z,95740.00
2023-04-03T18:36:50.144Z,95732.47
2023-04-03T18:39:17.969Z,95694.28
2023-04-03T18:41:46.434Z,95656.31
2023-04-03T18:44:19.911Z,95639.34
2023-04-03T18:46:48.410Z,95579.03
2023-04-03T18:49:18.133Z,95537.31
2023-04-03T18:51:46.295Z,95501.63
2023-04-03T18:54:18.015Z,95482.09
2023-04-03T18:56:45.939Z,95482.09
2023-04-03T18:59:15.514Z,95474.56
2023-04-03T19:01:43.973Z,95467.72
2023-04-03T19:04:11.848Z,95430.63
2023-04-03T19:06:39.681Z,95384.06
2023-04-03T19:09:09.006Z,95331.78
2023-04-03T19:11:37.558Z,95294.88
2023-04-03T19:14:16.161Z,95246.69
2023-04-03T19:16:46.716Z,95186.88
2023-04-03T19:19:14.688Z,95143.94
2023-04-03T19:21:42.489Z,95134.50
2023-04-03T19:24:11.150Z,95155.94
2023-04-03T19:26:39.321Z,95135.47
2023-04-03T19:29:07.114Z,95109.47
2023-04-03T19:31:36.802Z,95074.88
2023-04-03T19:34:07.418Z,95048.84
2023-04-03T19:36:36.066Z,95010.84
2023-04-03T19:39:05.054Z,95005.81
2023-04-03T19:41:35.278Z,95029.22
2023-04-03T19:44:04.864Z,95010.69
2023-04-03T19:46:32.949Z,94971.91
2023-04-03T19:49:01.132Z,94954.38
2023-04-03T19:51:30.759Z,94952.56
2023-04-03T19:53:58.646Z,94947.69
2023-04-03T19:56:27.897Z,94937.47
2023-04-03T19:58:55.847Z,94960.06
2023-04-03T20:01:26.875Z,94973.69
2023-04-03T20:03:54.969Z,94971.25
2023-04-03T20:06:22.972Z,94963.63
2023-04-03T20:08:52.227Z,94935.84
2023-04-03T20:11:20.164Z,94899.47
2023-04-03T20:13:50.462Z,94873.53
2023-04-03T20:16:18.837Z,94841.56
2023-04-03T20:18:47.590Z,94810.41
2023-04-03T20:21:18.785Z,94807.81
2023-04-03T20:23:46.868Z,94804.56
2023-04-03T20:26:24.561Z,94771.97
2023-04-03T20:28:53.327Z,94734.97
2023-04-03T20:31:24.062Z,94692.66
2023-04-03T20:33:52.110Z,94677.94
2023-04-03T20:36:21.736Z,94659.28
2023-04-03T20:38:50.099Z,94633.06
2023-04-03T20:41:18.776Z,94610.66
2023-04-03T20:43:48.304Z,94571.16
2023-04-03T20:46:20.313Z,94542.00
2023-04-03T20:48:48.921Z,94513.16
2023-04-03T20:51:19.457Z,94484.69
2023-04-03T20:53:47.712Z,94459.75
2023-04-03T20:56:16.171Z,94449.41
2023-04-03T20:58:46.715Z,94433.53
2023-04-03T21:01:18.752Z,94421.75
2023-04-03T21:03:47.683Z,94404.88
2023-04-03T21:06:53.223Z,94385.63
2023-04-03T21:09:58.515Z,94360.41
2023-04-03T21:13:04.232Z,94358.78
2023-04-03T21:15:52.094Z,94360.41
2023-04-03T21:18:42.122Z,94345.53
2023-04-03T21:21:19.696Z,94317.88
2023-04-03T21:23:48.983Z,94304.94
2023-04-03T21:26:18.053Z,94304.13
2023-04-03T21:28:46.407Z,94322.91
2023-04-03T21:31:15.324Z,94306.72
2023-04-03T21:33:45.208Z,94279.22
2023-04-03T21:36:13.342Z,94290.22
2023-04-03T21:38:41.318Z,94333.56
2023-04-03T21:41:09.249Z,94323.53
2023-04-03T21:43:37.276Z,94346.34
2023-04-03T21:46:05.708Z,94351.19
2023-04-03T21:48:33.674Z,94361.22
2023-04-03T21:51:06.959Z,94347.97
2023-04-03T21:53:35.576Z,94341.97
2023-04-03T21:56:04.038Z,94344.41
2023-04-03T21:58:33.141Z,94335.19
2023-04-03T22:01:10.317Z,94325.16
2023-04-03T22:03:38.356Z,94299.25
2023-04-03T22:06:11.630Z,94263.06
2023-04-03T22:08:40.441Z,94239.47
2023-04-03T22:11:10.028Z,94208.75
2023-04-03T22:13:38.482Z,94182.88
2023-04-03T22:16:07.314Z,94161.25
2023-04-03T22:18:36.711Z,94147.03
2023-04-03T22:21:04.609Z,94094.84
2023-04-03T22:23:33.910Z,94070.47
2023-04-03T22:26:03.802Z,94058.25
2023-04-03T22:28:33.589Z,94023.06
2023-04-03T22:31:07.446Z,94002.72
2023-04-03T22:33:37.199Z,93994.00
2023-04-03T22:36:06.299Z,93971.06
2023-04-03T22:38:36.825Z,93961.25
2023-04-03T22:41:07.434Z,93927.69
2023-04-03T22:43:37.603Z,93900.13
2023-04-03T22:46:07.305Z,93879.28
2023-04-03T22:48:35.541Z,93853.16
2023-04-03T22:51:07.588Z,93835.78
2023-04-03T22:53:37.330Z,93829.81
2023-04-03T22:56:10.335Z,93807.44
2023-04-03T22:58:39.155Z,93876.53
2023-04-03T23:01:09.009Z,93875.75
2023-04-03T23:03:37.986Z,93862.34
2023-04-03T23:06:07.040Z,93836.41
2023-04-03T23:08:35.912Z,93823.03
2023-04-03T23:11:07.235Z,93794.66
2023-04-03T23:13:35.381Z,93781.13
2023-04-03T23:16:04.824Z,93781.13
2023-04-03T23:18:35.174Z,93759.50
2023-04-03T23:21:04.648Z,93743.91
2023-04-03T23:23:33.217Z,93750.50
2023-04-03T23:26:02.712Z,93726.19
2023-04-03T23:28:32.076Z,93707.66
2023-04-03T23:31:01.972Z,93706.38
2023-04-03T23:33:31.091Z,93672.06
2023-04-03T23:35:59.467Z,93650.94
2023-04-03T23:38:27.905Z,93642.56
2023-04-03T23:40:55.895Z,93645.31
2023-04-03T23:43:23.999Z,93645.16
2023-04-03T23:45:53.776Z,93640.97
2023-04-03T23:48:21.952Z,93636.16
2023-04-03T23:50:50.178Z,93634.19
2023-04-03T23:53:18.529Z,93649.34
2023-04-03T23:55:47.649Z,93640.97
2023-04-03T23:58:15.932Z,93627.44
